Hami, Japan

4:23 PM JST on 四月 24, 2017 (GMT +0900)
Minami Oosumi | | Change Station

高度 0 ft 31.09 °N, 130.83 °E | Updated 2 minutes ago

所により曇
所により曇
63.0 °F
体感気温 63.0 °F
4.3
風 変数 風 から 南南東
Gusts 9.3 Mph

今日
高い -- | 低 -- °F
--% 降水確率
昨日
高い -- | 低 -- °F
Precip. -- インチ
気圧 30.15 インチ
視程 6.2 マイル
わずか 4000 ft
だいたい曇 16000 ft
露点温度 55 °F
湿度 75%
降水 0.01 インチ
積雪深 利用不可。
5:38 AM 6:50 PM
二十六夜, 7% visible
METAR RJFK 240700Z 17016KT 9999 FEW040 BKN160 BKN/// 19/08 Q1021 RMK 1CU040 6AC160 A3015
気圧 30.15 インチ
視程 6.2 マイル
わずか 4000 ft
だいたい曇 16000 ft
露点温度 55 °F
湿度 75%
降水 0.01 インチ
積雪深 利用不可。
5:38 AM 6:50 PM
二十六夜, 7% visible
METAR RJFK 240700Z 17016KT 9999 FEW040 BKN160 BKN/// 19/08 Q1021 RMK 1CU040 6AC160 A3015

Get Severe Weather Alerts

Thanks for signing up!

Be on the lookout for a verification email in your inbox.

You'll start receiving the daily forecast at 8 AM.

×

10-Day Weather Forecast

No radar image for this location.
×

Almanac

天文

Apr. 24, 2017 入り
実時間
常用薄明
航海薄明
天文薄明
可視光の長さ
可照時間
Tomorrow will be .
, % of the Moon is Illuminated

今日の極値

Country Highs Country Lows

Community

WunderBlog® & News

Nearby

空気品質

  空気品質 大気質指数 汚染物質
Not available.

積雪深

Station Depth 高度

地震活動

Distance Mag. Time & Date
Minimum magnitude displayed is 2.5.

沿岸の水温

地名 気温

Stations

最寄りの気象観測所

観測所位置 温度 体感気温(寒さ) 露点温度 湿度 Precip. 高度 更新日時 タイプする